• Join FlightAware (Why Join?)
  • Login
  • US Flag 
08:19AM EDT


 

Airport Tracker/Info


-or-


 

Live Flight TrackerFlight Track Log ✈ N818GM ✈ 17-Oct-2013 ✈ KTLH - KAPF

Flight Track Log - Related Links

Times and Time Zones

All times are in EDT time to prevent confusion due to time zone crossing. See the N818GM flight status page for this flight to view local times or setup timezone preferences in your user account.

Time Position Orientation Groundspeed Altitude Reporting Facility
EDT Latitude Longitude Course Direction KTS MPH feet Rate Location/Type
02:34PM 30.3305 -84.0593 130° Southeast  Level FlightAware Approximate
02:35PM 30.3015 -84.0187 130° Southeast  Level FlightAware Approximate
02:36PM 30.2737 -83.9771 128° Southeast  Level FlightAware Approximate
02:37PM 30.2460 -83.9355 128° Southeast  Level FlightAware Approximate
02:37PM 30.1783 -83.9786 133° Southeast 159 183 6,700  Level Jacksonville Center
02:38PM 30.2182 -83.8939 128° Southeast  Level FlightAware Approximate
02:38PM 30.1619 -83.9328 112° Southeast 159 183 6,900  Level Jacksonville Center
02:39PM 30.1905 -83.8523 128° Southeast  Level FlightAware Approximate
02:39PM 30.1458 -83.8775 109° East 164 189 7,000  Level Jacksonville Center
02:40PM 30.1622 -83.8111 133° Southeast  Level FlightAware Approximate
02:40PM 30.1317 -83.8244 107° East 170 196 7,000  Level Jacksonville Center
02:41PM 30.1314 -83.7725 133° Southeast  Level FlightAware Approximate
02:41PM 30.1006 -83.7833 131° Southeast 170 196 7,000  Level Jacksonville Center
02:42PM 30.0569 -83.7517 148° Southeast 170 196 7,000  Level Jacksonville Center
02:43PM 30.0197 -83.7153 140° Southeast 177 204 7,000  Level Jacksonville Center
02:44PM 29.9822 -83.6792 140° Southeast 177 204 7,000  Level Jacksonville Center
02:45PM 29.9469 -83.6428 138° Southeast 177 204 7,000  Level Jacksonville Center
02:46PM 29.9094 -83.6092 142° Southeast 177 204 7,000 -60 Level Jacksonville Center
02:47PM 29.8722 -83.5728 140° Southeast 177 204 6,900  Descending Jacksonville Center
02:48PM 29.8369 -83.5367 138° Southeast 177 204 7,000  Climbing Jacksonville Center
02:49PM 29.7994 -83.5028 142° Southeast 177 204 7,000  Level Jacksonville Center
02:50PM 29.7642 -83.4692 140° Southeast 177 204 7,000  Level Jacksonville Center
02:51PM 29.7289 -83.4356 140° Southeast 172 198 7,000  Level Jacksonville Center
02:52PM 29.6933 -83.3994 139° Southeast 172 198 7,000  Level Jacksonville Center
02:53PM 29.6561 -83.3658 142° Southeast 172 198 7,000  Level Jacksonville Center
02:54PM 29.6206 -83.3297 139° Southeast 172 198 7,000  Level Jacksonville Center
02:55PM 29.5831 -83.2961 142° Southeast 172 198 7,000  Level Jacksonville Center
02:56PM 29.5478 -83.2603 139° Southeast 172 198 7,000  Level Jacksonville Center
02:57PM 29.5103 -83.2242 140° Southeast 172 198 7,000  Level Jacksonville Center
02:58PM 29.4708 -83.1858 140° Southeast 177 204 7,000  Level Jacksonville Center
02:59PM 29.4353 -83.1500 139° Southeast 177 204 7,000  Level Jacksonville Center
03:00PM 29.4061 -83.1239 142° Southeast 177 204 7,000  Level Jacksonville Center
03:01PM 29.3625 -83.0808 139° Southeast 177 204 7,000  Level Jacksonville Center
03:01PM 29.3417 -83.0642 145° Southeast 170 196 7,000  Level Jacksonville Center
03:02PM 29.3269 -83.0450 131° Southeast 177 204 7,000  Level Jacksonville Center
03:02PM 29.3164 -83.0403 159° South 171 197 7,000  Level Jacksonville Center
03:03PM 29.2894 -83.0117 137° Southeast 177 204 7,000  Level Jacksonville Center
03:03PM 29.2811 -83.0069 154° Southeast 172 198 7,000  Level Jacksonville Center
03:04PM 29.2519 -82.9758 137° Southeast 172 198 7,000  Level Jacksonville Center
03:04PM 29.2436 -82.9686 143° Southeast 172 198 7,000  Level Jacksonville Center
03:05PM 29.2164 -82.9400 137° Southeast 172 198 7,000  Level Jacksonville Center
03:05PM 29.2100 -82.9353 147° Southeast 169 194 7,000  Level Jacksonville Center
03:06PM 29.1808 -82.9069 140° Southeast 172 198 7,000  Level Jacksonville Center
03:06PM 29.1706 -82.8972 140° Southeast 170 196 7,000  Level Jacksonville Center
03:07PM 29.1456 -82.8736 140° Southeast 172 198 7,000  Level Jacksonville Center
03:07PM 29.1308 -82.8617 145° Southeast 167 192 7,000  Level Jacksonville Center
03:08PM 29.1078 -82.8378 138° Southeast 172 198 7,000  Level Jacksonville Center
03:08PM 29.0933 -82.8261 145° Southeast 166 191 7,000  Level Jacksonville Center
03:09PM 29.0744 -82.8069 138° Southeast 172 198 7,000  Level Jacksonville Center
03:09PM 29.0578 -82.7953 149° Southeast 163 188 7,000  Level Jacksonville Center
03:10PM 29.0389 -82.7739 135° Southeast 172 198 7,000  Level Jacksonville Center
03:10PM 29.0222 -82.7619 148° Southeast 164 189 7,000  Level Jacksonville Center
03:11PM 29.0033 -82.7406 135° Southeast 172 198 7,000  Level Jacksonville Center
03:11PM 28.9889 -82.7289 145° Southeast 164 189 7,000  Level Jacksonville Center
03:12PM 28.9533 -82.6956 141° Southeast 162 186 7,000  Level Jacksonville Center
03:13PM 28.9156 -82.6600 141° Southeast 163 188 7,000  Level Jacksonville Center
03:14PM 28.8842 -82.6294 140° Southeast 160 184 7,000  Level Jacksonville Center
03:15PM 28.8486 -82.5986 143° Southeast 162 186 7,000  Level Jacksonville Center
03:16PM 28.8153 -82.5656 139° Southeast 162 186 7,000  Level Jacksonville Center
03:18PM 28.7500 -82.5000 139° Southeast 160 184 7,000  Level Tampa TRACON
03:19PM 28.7167 -82.4833 156° South 161 185 7,000  Level Tampa TRACON
03:20PM 28.6667 -82.4500 150° Southeast 162 186 7,000  Level Tampa TRACON
03:21PM 28.6333 -82.4333 156° South 164 189 7,000  Level Tampa TRACON
03:22PM 28.6000 -82.4000 139° Southeast 161 185 7,000  Level Tampa TRACON
03:23PM 28.5667 -82.3667 139° Southeast 160 184 7,000  Level Tampa TRACON
03:24PM 28.5333 -82.3333 139° Southeast 160 184 7,000  Level Tampa TRACON
03:25PM 28.4833 -82.3167 164° South 163 188 7,000  Level Tampa TRACON
03:26PM 28.4500 -82.2833 139° Southeast 162 186 7,000  Level Tampa TRACON
03:27PM 28.4000 -82.2667 164° South 162 186 7,000  Level Tampa TRACON
03:28PM 28.3667 -82.2500 156° South 165 190 7,000  Level Tampa TRACON
03:29PM 28.3167 -82.2500 180° South 162 186 7,000  Level Tampa TRACON
03:30PM 28.2667 -82.2333 164° South 159 183 7,000  Level Tampa TRACON
03:31PM 28.2333 -82.2333 180° South 159 183 7,000  Level Tampa TRACON
03:32PM 28.1833 -82.2333 180° South 161 185 7,000  Level Tampa TRACON
03:33PM 28.1333 -82.2333 180° South 163 188 7,000  Level Tampa TRACON
03:34PM 28.1000 -82.2333 180° South 162 186 7,000  Level Tampa TRACON
03:35PM 28.0500 -82.2333 180° South 162 186 7,000  Level Tampa TRACON
03:36PM 28.0167 -82.2167 156° South 161 185 7,000  Level Tampa TRACON
03:37PM 27.9667 -82.2000 164° South 158 182 7,000  Level Tampa TRACON
03:39PM 27.8806 -82.1817 169° South 151 174 7,000  Level Miami Center
03:40PM 27.8397 -82.1633 158° South 157 181 7,000  Level Miami Center
03:41PM 27.7944 -82.1425 158° South 162 186 7,000  Level Miami Center
03:42PM 27.7594 -82.1292 161° South 167 192 7,000  Level Miami Center
03:43PM 27.7161 -82.1153 164° South 162 186 7,000  Level Miami Center
03:44PM 27.6686 -82.1061 170° South 162 186 7,000  Level Miami Center
03:45PM 27.6228 -82.1017 175° South 163 188 7,000  Level Miami Center
03:46PM 27.5794 -82.0856 162° South 163 188 7,000  Level Miami Center
03:47PM 27.5472 -82.0583 143° Southeast 163 188 7,000  Level Miami Center
03:48PM 27.5106 -82.0311 147° Southeast 163 188 7,000  Level Miami Center
03:49PM 27.4719 -82.0036 148° Southeast 163 188 7,000  Level Miami Center
03:50PM 27.4333 -81.9761 148° Southeast 163 188 7,000  Level Miami Center
03:51PM 27.3944 -81.9511 150° Southeast 163 188 7,000  Level Miami Center
03:52PM 27.3558 -81.9258 150° Southeast 163 188 7,000  Level Miami Center
03:53PM 27.3192 -81.8986 147° Southeast 163 188 7,000  Level Miami Center
03:54PM 27.2847 -81.8644 139° Southeast 168 193 7,000  Level Miami Center
03:55PM 27.2483 -81.8325 142° Southeast 168 193 7,000  Level Miami Center
03:56PM 27.2139 -81.8006 140° Southeast 168 193 7,000  Level Miami Center
03:57PM 27.1794 -81.7689 141° Southeast 168 193 7,000  Level Miami Center
03:58PM 27.1431 -81.7347 140° Southeast 168 193 7,000  Level Miami Center
03:59PM 27.1067 -81.7006 140° Southeast 174 200 7,000  Level Miami Center
04:00PM 27.0722 -81.6686 140° Southeast 174 200 7,000  Level Miami Center
04:01PM 27.0378 -81.6392 143° Southeast 174 200 7,000  Level Miami Center
04:02PM 26.9839 -81.6300 171° South 169 194 7,000  Level Miami Center
04:03PM 26.9381 -81.6236 173° South 169 194 7,000  Level Miami Center
04:05PM 26.8600 -81.6405 191° South  Level FlightAware Approximate
04:12PM 26.4867 -81.7167 180° South  Level FlightAware Approximate
04:13PM 26.4324 -81.7168 189° South  Level FlightAware Approximate
04:14PM 26.3788 -81.7258 189° South  Level FlightAware Approximate
04:15PM 26.3252 -81.7347 188° South  Level FlightAware Approximate
04:16PM 26.2716 -81.7436 188° South  Level FlightAware Approximate
04:17PM 26.2180 -81.7531 190° South  Level FlightAware Approximate
04:18PM 26.1647 -81.7637 190° South  Level FlightAware Approximate
04:19PM 26.1500 -81.7667 190° South  Level FlightAware Approximate
04:20PM 26.1524 -81.7756 190° South  Level Estimated
04:21PM 26.1524 -81.7756 190° South  Level Estimated
04:22PM 26.1524 -81.7756 190° South  Level Estimated
04:23PM 26.1524 -81.7756 190° South  Level Estimated
04:24PM 26.1524 -81.7756 190° South  Level Estimated
04:25PM 26.1524 -81.7756 190° South  Level Estimated
04:26PM 26.1524 -81.7756 190° South  Level Estimated
04:27PM 26.1524 -81.7756 190° South  Level Estimated
04:28PM 26.1524 -81.7756 190° South  Level Estimated